sensor_id;sensor_type;location;lat;lon;timestamp;P1;durP1;ratioP1;P2;durP2;ratioP2
65853;SDS011;52627;48.838;2.402;2023-02-28T00:01:31;10.90;;;8.40;;
65853;SDS011;52627;48.838;2.402;2023-02-28T00:03:59;12.80;;;8.40;;
65853;SDS011;52627;48.838;2.402;2023-02-28T00:06:27;11.40;;;8.20;;
65853;SDS011;52627;48.838;2.402;2023-02-28T00:08:54;10.00;;;8.10;;
65853;SDS011;52627;48.838;2.402;2023-02-28T00:11:22;12.00;;;8.70;;
65853;SDS011;52627;48.838;2.402;2023-02-28T00:13:50;12.20;;;8.40;;
65853;SDS011;52627;48.838;2.402;2023-02-28T00:16:20;10.50;;;8.20;;
65853;SDS011;52627;48.838;2.402;2023-02-28T00:18:49;13.40;;;9.20;;
65853;SDS011;52627;48.838;2.402;2023-02-28T00:21:17;9.00;;;7.70;;
65853;SDS011;52627;48.838;2.402;2023-02-28T00:23:46;11.10;;;8.80;;
65853;SDS011;52627;48.838;2.402;2023-02-28T00:26:14;10.90;;;8.50;;
65853;SDS011;52627;48.838;2.402;2023-02-28T00:28:41;11.10;;;8.80;;
65853;SDS011;52627;48.838;2.402;2023-02-28T00:31:09;10.30;;;8.10;;
65853;SDS011;52627;48.838;2.402;2023-02-28T00:33:36;10.40;;;8.00;;
65853;SDS011;52627;48.838;2.402;2023-02-28T00:36:09;12.40;;;8.60;;
65853;SDS011;52627;48.838;2.402;2023-02-28T00:38:39;11.20;;;8.20;;
65853;SDS011;52627;48.838;2.402;2023-02-28T00:41:07;11.00;;;7.90;;
65853;SDS011;52627;48.838;2.402;2023-02-28T00:43:37;9.90;;;8.10;;
65853;SDS011;52627;48.838;2.402;2023-02-28T00:46:06;11.10;;;8.80;;
65853;SDS011;52627;48.838;2.402;2023-02-28T00:48:35;10.70;;;7.50;;
65853;SDS011;52627;48.838;2.402;2023-02-28T00:51:03;13.90;;;9.00;;
65853;SDS011;52627;48.838;2.402;2023-02-28T00:53:31;10.20;;;8.40;;
65853;SDS011;52627;48.838;2.402;2023-02-28T00:55:59;13.00;;;8.00;;
65853;SDS011;52627;48.838;2.402;2023-02-28T00:58:27;10.60;;;7.50;;
65853;SDS011;52627;48.838;2.402;2023-02-28T01:00:55;9.50;;;7.40;;
65853;SDS011;52627;48.838;2.402;2023-02-28T01:03:23;10.00;;;7.20;;
65853;SDS011;52627;48.838;2.402;2023-02-28T01:05:51;9.90;;;6.80;;
65853;SDS011;52627;48.838;2.402;2023-02-28T01:08:20;10.10;;;7.30;;
65853;SDS011;52627;48.838;2.402;2023-02-28T01:10:49;10.10;;;6.70;;
65853;SDS011;52627;48.838;2.402;2023-02-28T01:13:16;10.50;;;6.60;;
65853;SDS011;52627;48.838;2.402;2023-02-28T01:15:52;8.40;;;6.50;;
65853;SDS011;52627;48.838;2.402;2023-02-28T01:18:22;8.70;;;6.30;;
65853;SDS011;52627;48.838;2.402;2023-02-28T01:20:50;8.80;;;6.30;;
65853;SDS011;52627;48.838;2.402;2023-02-28T01:23:20;9.10;;;6.60;;
65853;SDS011;52627;48.838;2.402;2023-02-28T01:25:52;8.70;;;6.40;;
65853;SDS011;52627;48.838;2.402;2023-02-28T01:28:20;8.00;;;6.00;;
65853;SDS011;52627;48.838;2.402;2023-02-28T01:30:50;8.20;;;6.80;;
65853;SDS011;52627;48.838;2.402;2023-02-28T01:33:18;9.00;;;6.30;;
65853;SDS011;52627;48.838;2.402;2023-02-28T01:35:45;7.40;;;6.00;;
65853;SDS011;52627;48.838;2.402;2023-02-28T01:38:13;8.10;;;5.80;;
65853;SDS011;52627;48.838;2.402;2023-02-28T01:40:49;7.80;;;6.30;;
65853;SDS011;52627;48.838;2.402;2023-02-28T01:43:23;9.00;;;6.20;;
65853;SDS011;52627;48.838;2.402;2023-02-28T01:45:54;8.10;;;6.10;;
65853;SDS011;52627;48.838;2.402;2023-02-28T01:48:28;8.30;;;6.00;;
65853;SDS011;52627;48.838;2.402;2023-02-28T01:51:05;10.40;;;6.30;;
65853;SDS011;52627;48.838;2.402;2023-02-28T01:53:41;7.70;;;6.30;;
65853;SDS011;52627;48.838;2.402;2023-02-28T01:56:19;8.40;;;6.30;;
65853;SDS011;52627;48.838;2.402;2023-02-28T01:58:50;10.30;;;6.30;;
65853;SDS011;52627;48.838;2.402;2023-02-28T02:01:21;10.20;;;6.10;;
65853;SDS011;52627;48.838;2.402;2023-02-28T02:03:54;7.40;;;5.70;;
65853;SDS011;52627;48.838;2.402;2023-02-28T02:06:45;8.60;;;6.80;;
65853;SDS011;52627;48.838;2.402;2023-02-28T02:09:14;8.90;;;5.60;;
65853;SDS011;52627;48.838;2.402;2023-02-28T02:11:43;7.60;;;6.40;;
65853;SDS011;52627;48.838;2.402;2023-02-28T02:14:25;7.80;;;6.10;;
65853;SDS011;52627;48.838;2.402;2023-02-28T02:17:20;7.70;;;6.00;;
65853;SDS011;52627;48.838;2.402;2023-02-28T02:29:20;8.70;;;6.20;;
65853;SDS011;52627;48.838;2.402;2023-02-28T02:37:52;10.20;;;6.00;;
65853;SDS011;52627;48.838;2.402;2023-02-28T02:40:36;7.90;;;5.90;;
65853;SDS011;52627;48.838;2.402;2023-02-28T02:46:13;7.20;;;5.70;;
65853;SDS011;52627;48.838;2.402;2023-02-28T02:48:44;8.90;;;6.10;;
65853;SDS011;52627;48.838;2.402;2023-02-28T02:51:15;9.00;;;6.10;;
65853;SDS011;52627;48.838;2.402;2023-02-28T02:53:54;8.30;;;5.90;;
65853;SDS011;52627;48.838;2.402;2023-02-28T02:56:27;8.60;;;6.10;;
65853;SDS011;52627;48.838;2.402;2023-02-28T02:59:00;7.70;;;6.20;;
65853;SDS011;52627;48.838;2.402;2023-02-28T03:01:31;7.80;;;6.20;;
65853;SDS011;52627;48.838;2.402;2023-02-28T03:04:12;10.10;;;5.50;;
65853;SDS011;52627;48.838;2.402;2023-02-28T03:06:43;6.60;;;5.10;;
65853;SDS011;52627;48.838;2.402;2023-02-28T03:09:10;7.90;;;5.90;;
65853;SDS011;52627;48.838;2.402;2023-02-28T03:11:39;8.80;;;5.90;;
65853;SDS011;52627;48.838;2.402;2023-02-28T03:17:14;7.50;;;5.30;;
65853;SDS011;52627;48.838;2.402;2023-02-28T03:20:32;9.20;;;5.80;;
65853;SDS011;52627;48.838;2.402;2023-02-28T03:23:17;8.30;;;5.30;;
65853;SDS011;52627;48.838;2.402;2023-02-28T03:28:44;8.50;;;6.00;;
65853;SDS011;52627;48.838;2.402;2023-02-28T03:31:44;8.00;;;5.60;;
65853;SDS011;52627;48.838;2.402;2023-02-28T03:36:53;8.40;;;6.00;;
65853;SDS011;52627;48.838;2.402;2023-02-28T03:39:24;7.90;;;5.50;;
65853;SDS011;52627;48.838;2.402;2023-02-28T03:42:01;8.60;;;5.50;;
65853;SDS011;52627;48.838;2.402;2023-02-28T03:44:42;7.70;;;5.70;;
65853;SDS011;52627;48.838;2.402;2023-02-28T03:47:37;8.10;;;6.00;;
65853;SDS011;52627;48.838;2.402;2023-02-28T03:50:21;8.00;;;5.70;;
65853;SDS011;52627;48.838;2.402;2023-02-28T03:52:55;8.60;;;5.40;;
65853;SDS011;52627;48.838;2.402;2023-02-28T03:55:45;7.80;;;5.50;;
65853;SDS011;52627;48.838;2.402;2023-02-28T04:01:19;8.60;;;5.40;;
65853;SDS011;52627;48.838;2.402;2023-02-28T04:03:49;7.40;;;5.70;;
65853;SDS011;52627;48.838;2.402;2023-02-28T04:06:22;7.40;;;5.30;;
65853;SDS011;52627;48.838;2.402;2023-02-28T04:08:50;7.30;;;5.10;;
65853;SDS011;52627;48.838;2.402;2023-02-28T04:11:22;8.20;;;5.30;;
65853;SDS011;52627;48.838;2.402;2023-02-28T04:14:11;7.20;;;4.70;;
65853;SDS011;52627;48.838;2.402;2023-02-28T04:16:41;7.90;;;5.60;;
65853;SDS011;52627;48.838;2.402;2023-02-28T04:19:11;8.80;;;5.90;;
65853;SDS011;52627;48.838;2.402;2023-02-28T04:21:45;7.00;;;5.30;;
65853;SDS011;52627;48.838;2.402;2023-02-28T04:24:16;9.30;;;5.60;;
65853;SDS011;52627;48.838;2.402;2023-02-28T04:26:48;9.40;;;5.90;;
65853;SDS011;52627;48.838;2.402;2023-02-28T04:32:03;7.90;;;6.20;;
65853;SDS011;52627;48.838;2.402;2023-02-28T04:34:31;8.40;;;6.30;;
65853;SDS011;52627;48.838;2.402;2023-02-28T04:37:00;7.40;;;6.00;;
65853;SDS011;52627;48.838;2.402;2023-02-28T04:39:43;9.10;;;5.90;;
65853;SDS011;52627;48.838;2.402;2023-02-28T04:42:11;8.00;;;5.30;;
65853;SDS011;52627;48.838;2.402;2023-02-28T04:44:39;7.70;;;5.20;;
65853;SDS011;52627;48.838;2.402;2023-02-28T04:47:06;7.70;;;5.00;;
65853;SDS011;52627;48.838;2.402;2023-02-28T04:49:34;7.50;;;5.30;;
65853;SDS011;52627;48.838;2.402;2023-02-28T04:52:02;7.80;;;5.00;;
65853;SDS011;52627;48.838;2.402;2023-02-28T04:54:29;6.90;;;4.80;;
65853;SDS011;52627;48.838;2.402;2023-02-28T04:56:56;8.50;;;5.20;;
65853;SDS011;52627;48.838;2.402;2023-02-28T04:59:24;7.40;;;5.10;;
65853;SDS011;52627;48.838;2.402;2023-02-28T05:01:52;7.30;;;4.90;;
65853;SDS011;52627;48.838;2.402;2023-02-28T05:04:19;7.30;;;5.00;;
65853;SDS011;52627;48.838;2.402;2023-02-28T05:06:46;7.70;;;4.80;;
65853;SDS011;52627;48.838;2.402;2023-02-28T05:09:14;7.50;;;4.90;;
65853;SDS011;52627;48.838;2.402;2023-02-28T05:11:41;6.60;;;4.70;;
65853;SDS011;52627;48.838;2.402;2023-02-28T05:14:12;8.20;;;4.90;;
65853;SDS011;52627;48.838;2.402;2023-02-28T05:16:40;7.70;;;4.90;;
65853;SDS011;52627;48.838;2.402;2023-02-28T05:19:08;6.40;;;4.40;;
65853;SDS011;52627;48.838;2.402;2023-02-28T05:24:11;6.60;;;4.60;;
65853;SDS011;52627;48.838;2.402;2023-02-28T05:26:40;7.00;;;5.10;;
65853;SDS011;52627;48.838;2.402;2023-02-28T05:29:10;7.90;;;5.50;;
65853;SDS011;52627;48.838;2.402;2023-02-28T05:31:38;7.60;;;5.00;;
65853;SDS011;52627;48.838;2.402;2023-02-28T05:34:05;8.10;;;5.40;;
65853;SDS011;52627;48.838;2.402;2023-02-28T05:36:33;7.20;;;5.60;;
65853;SDS011;52627;48.838;2.402;2023-02-28T05:39:00;8.90;;;5.70;;
65853;SDS011;52627;48.838;2.402;2023-02-28T05:41:28;9.10;;;6.00;;
65853;SDS011;52627;48.838;2.402;2023-02-28T05:43:57;9.00;;;5.70;;
65853;SDS011;52627;48.838;2.402;2023-02-28T05:46:25;7.60;;;6.20;;
65853;SDS011;52627;48.838;2.402;2023-02-28T05:48:52;7.70;;;6.10;;
65853;SDS011;52627;48.838;2.402;2023-02-28T05:51:20;8.30;;;5.40;;
65853;SDS011;52627;48.838;2.402;2023-02-28T05:53:47;8.90;;;6.00;;
65853;SDS011;52627;48.838;2.402;2023-02-28T05:56:16;9.30;;;6.90;;
65853;SDS011;52627;48.838;2.402;2023-02-28T05:58:43;10.30;;;6.70;;
65853;SDS011;52627;48.838;2.402;2023-02-28T06:04:06;10.80;;;7.70;;
65853;SDS011;52627;48.838;2.402;2023-02-28T06:06:46;11.30;;;8.00;;
65853;SDS011;52627;48.838;2.402;2023-02-28T06:09:18;10.50;;;7.80;;
65853;SDS011;52627;48.838;2.402;2023-02-28T06:11:46;10.30;;;7.60;;
65853;SDS011;52627;48.838;2.402;2023-02-28T06:14:18;11.60;;;8.10;;
65853;SDS011;52627;48.838;2.402;2023-02-28T06:16:46;13.10;;;8.90;;
65853;SDS011;52627;48.838;2.402;2023-02-28T06:19:14;13.50;;;8.70;;
65853;SDS011;52627;48.838;2.402;2023-02-28T06:21:43;11.20;;;8.60;;
65853;SDS011;52627;48.838;2.402;2023-02-28T06:24:10;15.10;;;8.90;;
65853;SDS011;52627;48.838;2.402;2023-02-28T06:26:38;13.20;;;9.00;;
65853;SDS011;52627;48.838;2.402;2023-02-28T06:29:05;10.90;;;9.10;;
65853;SDS011;52627;48.838;2.402;2023-02-28T06:31:33;14.70;;;9.70;;
65853;SDS011;52627;48.838;2.402;2023-02-28T06:34:00;13.30;;;9.40;;
65853;SDS011;52627;48.838;2.402;2023-02-28T06:36:28;13.10;;;9.30;;
65853;SDS011;52627;48.838;2.402;2023-02-28T06:38:56;16.20;;;9.70;;
65853;SDS011;52627;48.838;2.402;2023-02-28T06:41:25;12.10;;;9.90;;
65853;SDS011;52627;48.838;2.402;2023-02-28T06:43:54;13.50;;;9.90;;
65853;SDS011;52627;48.838;2.402;2023-02-28T06:46:22;13.30;;;9.70;;
65853;SDS011;52627;48.838;2.402;2023-02-28T06:48:50;14.90;;;10.30;;
65853;SDS011;52627;48.838;2.402;2023-02-28T06:51:19;15.00;;;11.10;;
65853;SDS011;52627;48.838;2.402;2023-02-28T06:56:18;19.20;;;12.20;;
65853;SDS011;52627;48.838;2.402;2023-02-28T06:58:48;15.90;;;12.00;;
65853;SDS011;52627;48.838;2.402;2023-02-28T07:01:17;14.60;;;10.80;;
65853;SDS011;52627;48.838;2.402;2023-02-28T07:03:45;14.90;;;11.60;;
65853;SDS011;52627;48.838;2.402;2023-02-28T07:06:13;15.90;;;11.30;;
65853;SDS011;52627;48.838;2.402;2023-02-28T07:08:40;14.40;;;11.40;;
65853;SDS011;52627;48.838;2.402;2023-02-28T07:11:08;17.10;;;11.80;;
65853;SDS011;52627;48.838;2.402;2023-02-28T07:13:36;16.80;;;12.50;;
65853;SDS011;52627;48.838;2.402;2023-02-28T07:16:06;15.00;;;11.50;;
65853;SDS011;52627;48.838;2.402;2023-02-28T07:18:36;17.30;;;12.50;;
65853;SDS011;52627;48.838;2.402;2023-02-28T07:21:07;17.00;;;11.40;;
65853;SDS011;52627;48.838;2.402;2023-02-28T07:23:36;16.10;;;11.90;;
65853;SDS011;52627;48.838;2.402;2023-02-28T07:26:11;16.70;;;12.90;;
65853;SDS011;52627;48.838;2.402;2023-02-28T07:28:42;18.30;;;13.00;;
65853;SDS011;52627;48.838;2.402;2023-02-28T07:31:11;15.90;;;12.10;;
65853;SDS011;52627;48.838;2.402;2023-02-28T07:33:41;15.90;;;13.00;;
65853;SDS011;52627;48.838;2.402;2023-02-28T07:36:12;17.80;;;12.10;;
65853;SDS011;52627;48.838;2.402;2023-02-28T07:38:44;19.10;;;13.40;;
65853;SDS011;52627;48.838;2.402;2023-02-28T07:41:16;21.50;;;12.70;;
65853;SDS011;52627;48.838;2.402;2023-02-28T07:43:45;17.20;;;12.60;;
65853;SDS011;52627;48.838;2.402;2023-02-28T07:46:14;19.30;;;12.90;;
65853;SDS011;52627;48.838;2.402;2023-02-28T07:48:44;20.10;;;14.50;;
65853;SDS011;52627;48.838;2.402;2023-02-28T07:51:12;21.30;;;12.60;;
65853;SDS011;52627;48.838;2.402;2023-02-28T07:53:39;20.20;;;13.20;;
65853;SDS011;52627;48.838;2.402;2023-02-28T07:56:07;18.90;;;13.30;;
65853;SDS011;52627;48.838;2.402;2023-02-28T07:58:35;20.00;;;12.50;;
65853;SDS011;52627;48.838;2.402;2023-02-28T08:01:07;16.80;;;13.30;;
65853;SDS011;52627;48.838;2.402;2023-02-28T08:03:36;16.40;;;12.50;;
65853;SDS011;52627;48.838;2.402;2023-02-28T08:06:05;16.90;;;12.50;;
65853;SDS011;52627;48.838;2.402;2023-02-28T08:08:34;20.00;;;13.30;;
65853;SDS011;52627;48.838;2.402;2023-02-28T08:11:02;18.60;;;13.60;;
65853;SDS011;52627;48.838;2.402;2023-02-28T08:13:30;18.50;;;13.40;;
65853;SDS011;52627;48.838;2.402;2023-02-28T08:15:58;16.00;;;13.50;;
65853;SDS011;52627;48.838;2.402;2023-02-28T08:18:25;16.30;;;12.80;;
65853;SDS011;52627;48.838;2.402;2023-02-28T08:20:53;20.10;;;12.90;;
65853;SDS011;52627;48.838;2.402;2023-02-28T08:23:20;18.50;;;12.70;;
65853;SDS011;52627;48.838;2.402;2023-02-28T08:25:54;17.80;;;12.30;;
65853;SDS011;52627;48.838;2.402;2023-02-28T08:28:23;17.40;;;12.30;;
65853;SDS011;52627;48.838;2.402;2023-02-28T08:30:54;18.90;;;13.10;;
65853;SDS011;52627;48.838;2.402;2023-02-28T08:33:22;18.30;;;12.40;;
65853;SDS011;52627;48.838;2.402;2023-02-28T08:35:54;15.80;;;12.00;;
65853;SDS011;52627;48.838;2.402;2023-02-28T08:38:22;15.10;;;11.60;;
65853;SDS011;52627;48.838;2.402;2023-02-28T08:40:57;16.00;;;11.10;;
65853;SDS011;52627;48.838;2.402;2023-02-28T08:43:26;15.20;;;12.50;;
65853;SDS011;52627;48.838;2.402;2023-02-28T08:45:54;17.20;;;12.40;;
65853;SDS011;52627;48.838;2.402;2023-02-28T08:48:30;17.40;;;11.50;;
65853;SDS011;52627;48.838;2.402;2023-02-28T08:51:01;16.60;;;11.40;;
65853;SDS011;52627;48.838;2.402;2023-02-28T08:53:36;17.90;;;12.40;;
65853;SDS011;52627;48.838;2.402;2023-02-28T08:56:09;16.20;;;12.10;;
65853;SDS011;52627;48.838;2.402;2023-02-28T08:58:39;15.50;;;11.50;;
65853;SDS011;52627;48.838;2.402;2023-02-28T09:01:15;14.10;;;11.10;;
65853;SDS011;52627;48.838;2.402;2023-02-28T09:03:50;15.10;;;11.60;;
65853;SDS011;52627;48.838;2.402;2023-02-28T09:08:48;13.90;;;9.40;;
65853;SDS011;52627;48.838;2.402;2023-02-28T09:11:15;15.30;;;9.90;;
65853;SDS011;52627;48.838;2.402;2023-02-28T09:13:43;12.00;;;9.50;;
65853;SDS011;52627;48.838;2.402;2023-02-28T09:16:13;11.30;;;9.20;;
65853;SDS011;52627;48.838;2.402;2023-02-28T09:18:41;15.70;;;9.20;;
65853;SDS011;52627;48.838;2.402;2023-02-28T09:21:12;10.60;;;8.90;;
65853;SDS011;52627;48.838;2.402;2023-02-28T09:23:43;11.10;;;8.20;;
65853;SDS011;52627;48.838;2.402;2023-02-28T09:26:16;11.20;;;8.20;;
65853;SDS011;52627;48.838;2.402;2023-02-28T09:28:48;11.60;;;7.90;;
65853;SDS011;52627;48.838;2.402;2023-02-28T09:31:20;12.10;;;8.10;;
65853;SDS011;52627;48.838;2.402;2023-02-28T09:33:53;11.20;;;8.70;;
65853;SDS011;52627;48.838;2.402;2023-02-28T09:36:23;10.30;;;8.10;;
65853;SDS011;52627;48.838;2.402;2023-02-28T09:39:07;10.40;;;8.00;;
65853;SDS011;52627;48.838;2.402;2023-02-28T09:41:44;10.30;;;7.80;;
65853;SDS011;52627;48.838;2.402;2023-02-28T09:44:29;8.30;;;7.10;;
65853;SDS011;52627;48.838;2.402;2023-02-28T09:47:08;9.10;;;6.80;;
65853;SDS011;52627;48.838;2.402;2023-02-28T09:49:41;10.80;;;6.70;;
65853;SDS011;52627;48.838;2.402;2023-02-28T09:52:22;9.70;;;7.20;;
65853;SDS011;52627;48.838;2.402;2023-02-28T09:54:54;8.40;;;7.00;;
65853;SDS011;52627;48.838;2.402;2023-02-28T09:57:35;9.10;;;7.50;;
65853;SDS011;52627;48.838;2.402;2023-02-28T10:00:22;10.10;;;7.50;;
65853;SDS011;52627;48.838;2.402;2023-02-28T10:06:22;9.40;;;8.10;;
65853;SDS011;52627;48.838;2.402;2023-02-28T10:09:02;8.90;;;6.90;;
65853;SDS011;52627;48.838;2.402;2023-02-28T10:11:33;9.70;;;7.50;;
65853;SDS011;52627;48.838;2.402;2023-02-28T10:16:59;12.00;;;8.50;;
65853;SDS011;52627;48.838;2.402;2023-02-28T10:19:34;9.70;;;7.90;;
65853;SDS011;52627;48.838;2.402;2023-02-28T10:22:37;10.30;;;7.70;;
65853;SDS011;52627;48.838;2.402;2023-02-28T10:25:28;10.60;;;6.40;;
65853;SDS011;52627;48.838;2.402;2023-02-28T10:28:04;11.80;;;7.40;;
65853;SDS011;52627;48.838;2.402;2023-02-28T10:30:43;10.60;;;6.70;;
65853;SDS011;52627;48.838;2.402;2023-02-28T10:33:31;9.80;;;6.60;;
65853;SDS011;52627;48.838;2.402;2023-02-28T10:36:03;7.90;;;6.50;;
65853;SDS011;52627;48.838;2.402;2023-02-28T10:38:36;7.60;;;6.30;;
65853;SDS011;52627;48.838;2.402;2023-02-28T10:41:10;9.00;;;6.10;;
65853;SDS011;52627;48.838;2.402;2023-02-28T10:43:44;6.60;;;5.90;;
65853;SDS011;52627;48.838;2.402;2023-02-28T10:46:18;8.00;;;6.40;;
65853;SDS011;52627;48.838;2.402;2023-02-28T10:49:12;8.60;;;6.70;;
65853;SDS011;52627;48.838;2.402;2023-02-28T10:51:58;7.80;;;5.90;;
65853;SDS011;52627;48.838;2.402;2023-02-28T10:54:31;8.50;;;5.80;;
65853;SDS011;52627;48.838;2.402;2023-02-28T10:57:18;8.40;;;5.60;;
65853;SDS011;52627;48.838;2.402;2023-02-28T10:59:52;7.20;;;5.80;;
65853;SDS011;52627;48.838;2.402;2023-02-28T11:02:36;6.20;;;4.50;;
65853;SDS011;52627;48.838;2.402;2023-02-28T11:05:29;7.30;;;5.00;;
65853;SDS011;52627;48.838;2.402;2023-02-28T11:08:12;8.10;;;5.10;;
65853;SDS011;52627;48.838;2.402;2023-02-28T11:10:46;7.20;;;5.00;;
65853;SDS011;52627;48.838;2.402;2023-02-28T11:13:32;6.70;;;5.80;;
65853;SDS011;52627;48.838;2.402;2023-02-28T11:16:04;6.10;;;5.40;;
65853;SDS011;52627;48.838;2.402;2023-02-28T11:18:40;8.50;;;5.60;;
65853;SDS011;52627;48.838;2.402;2023-02-28T11:21:26;7.50;;;5.60;;
65853;SDS011;52627;48.838;2.402;2023-02-28T11:24:27;7.80;;;5.20;;
65853;SDS011;52627;48.838;2.402;2023-02-28T11:26:57;8.60;;;4.70;;
65853;SDS011;52627;48.838;2.402;2023-02-28T11:29:27;6.40;;;4.50;;
65853;SDS011;52627;48.838;2.402;2023-02-28T11:32:18;7.20;;;4.70;;
65853;SDS011;52627;48.838;2.402;2023-02-28T11:37:38;6.60;;;4.70;;
65853;SDS011;52627;48.838;2.402;2023-02-28T11:40:17;7.80;;;5.20;;
65853;SDS011;52627;48.838;2.402;2023-02-28T11:46:22;6.70;;;5.20;;
65853;SDS011;52627;48.838;2.402;2023-02-28T11:54:59;8.30;;;5.30;;
65853;SDS011;52627;48.838;2.402;2023-02-28T11:57:33;7.20;;;5.20;;
65853;SDS011;52627;48.838;2.402;2023-02-28T12:15:17;6.80;;;4.40;;
65853;SDS011;52627;48.838;2.402;2023-02-28T12:18:37;7.10;;;4.70;;
65853;SDS011;52627;48.838;2.402;2023-02-28T12:21:18;7.70;;;5.20;;
65853;SDS011;52627;48.838;2.402;2023-02-28T12:24:19;6.60;;;5.10;;
65853;SDS011;52627;48.838;2.402;2023-02-28T12:26:53;6.60;;;4.70;;
65853;SDS011;52627;48.838;2.402;2023-02-28T12:30:04;8.50;;;4.70;;
65853;SDS011;52627;48.838;2.402;2023-02-28T12:32:35;8.30;;;4.60;;
65853;SDS011;52627;48.838;2.402;2023-02-28T12:35:12;6.10;;;4.50;;
65853;SDS011;52627;48.838;2.402;2023-02-28T12:37:57;7.30;;;3.90;;
65853;SDS011;52627;48.838;2.402;2023-02-28T12:40:42;14.30;;;5.00;;
65853;SDS011;52627;48.838;2.402;2023-02-28T12:43:15;7.70;;;4.30;;
65853;SDS011;52627;48.838;2.402;2023-02-28T12:45:48;8.30;;;4.30;;
65853;SDS011;52627;48.838;2.402;2023-02-28T12:48:24;6.60;;;4.70;;
65853;SDS011;52627;48.838;2.402;2023-02-28T12:50:55;6.00;;;4.40;;
65853;SDS011;52627;48.838;2.402;2023-02-28T12:53:53;6.30;;;4.40;;
65853;SDS011;52627;48.838;2.402;2023-02-28T12:57:08;6.60;;;4.50;;
65853;SDS011;52627;48.838;2.402;2023-02-28T12:59:49;7.90;;;5.20;;
65853;SDS011;52627;48.838;2.402;2023-02-28T13:11:50;8.10;;;4.90;;
65853;SDS011;52627;48.838;2.402;2023-02-28T13:14:23;10.30;;;5.00;;
65853;SDS011;52627;48.838;2.402;2023-02-28T13:19:27;7.40;;;5.10;;
65853;SDS011;52627;48.838;2.402;2023-02-28T13:21:58;5.70;;;4.20;;
65853;SDS011;52627;48.838;2.402;2023-02-28T13:24:45;5.80;;;4.10;;
65853;SDS011;52627;48.838;2.402;2023-02-28T13:29:43;6.00;;;4.20;;
65853;SDS011;52627;48.838;2.402;2023-02-28T13:39:58;6.70;;;3.60;;
65853;SDS011;52627;48.838;2.402;2023-02-28T13:42:50;7.20;;;4.30;;
65853;SDS011;52627;48.838;2.402;2023-02-28T13:45:30;7.70;;;4.50;;
65853;SDS011;52627;48.838;2.402;2023-02-28T13:48:03;6.70;;;4.20;;
65853;SDS011;52627;48.838;2.402;2023-02-28T13:50:34;6.00;;;4.20;;
65853;SDS011;52627;48.838;2.402;2023-02-28T13:56:08;5.50;;;3.90;;
65853;SDS011;52627;48.838;2.402;2023-02-28T13:59:02;5.70;;;4.10;;
65853;SDS011;52627;48.838;2.402;2023-02-28T14:02:09;5.90;;;4.30;;
65853;SDS011;52627;48.838;2.402;2023-02-28T14:04:56;5.40;;;3.80;;
65853;SDS011;52627;48.838;2.402;2023-02-28T14:07:32;5.90;;;4.00;;
65853;SDS011;52627;48.838;2.402;2023-02-28T14:10:06;6.70;;;4.10;;
65853;SDS011;52627;48.838;2.402;2023-02-28T14:15:30;5.90;;;3.70;;
65853;SDS011;52627;48.838;2.402;2023-02-28T14:21:20;7.00;;;4.50;;
65853;SDS011;52627;48.838;2.402;2023-02-28T14:27:08;5.30;;;3.90;;
65853;SDS011;52627;48.838;2.402;2023-02-28T14:37:45;7.00;;;4.30;;
65853;SDS011;52627;48.838;2.402;2023-02-28T14:40:17;6.80;;;4.40;;
65853;SDS011;52627;48.838;2.402;2023-02-28T14:43:00;6.70;;;3.80;;
65853;SDS011;52627;48.838;2.402;2023-02-28T14:45:31;7.20;;;4.20;;
65853;SDS011;52627;48.838;2.402;2023-02-28T14:48:01;8.10;;;4.00;;
65853;SDS011;52627;48.838;2.402;2023-02-28T14:50:32;6.60;;;4.40;;
65853;SDS011;52627;48.838;2.402;2023-02-28T14:53:02;6.30;;;4.30;;
65853;SDS011;52627;48.838;2.402;2023-02-28T14:55:35;7.50;;;3.90;;
65853;SDS011;52627;48.838;2.402;2023-02-28T14:58:21;5.70;;;3.90;;
65853;SDS011;52627;48.838;2.402;2023-02-28T15:01:02;5.80;;;3.90;;
65853;SDS011;52627;48.838;2.402;2023-02-28T15:03:37;5.30;;;4.00;;
65853;SDS011;52627;48.838;2.402;2023-02-28T15:06:13;5.70;;;3.70;;
65853;SDS011;52627;48.838;2.402;2023-02-28T15:08:42;6.20;;;3.90;;
65853;SDS011;52627;48.838;2.402;2023-02-28T15:11:16;6.20;;;4.00;;
65853;SDS011;52627;48.838;2.402;2023-02-28T15:13:51;5.90;;;4.00;;
65853;SDS011;52627;48.838;2.402;2023-02-28T15:16:22;6.60;;;4.10;;
65853;SDS011;52627;48.838;2.402;2023-02-28T15:18:59;6.20;;;4.10;;
65853;SDS011;52627;48.838;2.402;2023-02-28T15:21:34;6.90;;;4.20;;
65853;SDS011;52627;48.838;2.402;2023-02-28T15:24:07;6.30;;;4.20;;
65853;SDS011;52627;48.838;2.402;2023-02-28T15:26:39;5.70;;;3.90;;
65853;SDS011;52627;48.838;2.402;2023-02-28T15:29:13;8.20;;;4.40;;
65853;SDS011;52627;48.838;2.402;2023-02-28T15:32:05;6.80;;;4.10;;
65853;SDS011;52627;48.838;2.402;2023-02-28T15:34:43;5.60;;;4.00;;
65853;SDS011;52627;48.838;2.402;2023-02-28T15:45:41;9.90;;;5.40;;
65853;SDS011;52627;48.838;2.402;2023-02-28T15:48:17;6.10;;;4.40;;
65853;SDS011;52627;48.838;2.402;2023-02-28T15:50:54;7.00;;;4.10;;
65853;SDS011;52627;48.838;2.402;2023-02-28T15:53:30;7.20;;;4.10;;
65853;SDS011;52627;48.838;2.402;2023-02-28T15:56:05;6.10;;;4.00;;
65853;SDS011;52627;48.838;2.402;2023-02-28T15:58:41;6.70;;;3.80;;
65853;SDS011;52627;48.838;2.402;2023-02-28T16:01:23;5.70;;;3.90;;
65853;SDS011;52627;48.838;2.402;2023-02-28T16:03:54;6.90;;;4.60;;
65853;SDS011;52627;48.838;2.402;2023-02-28T16:06:33;5.80;;;4.10;;
65853;SDS011;52627;48.838;2.402;2023-02-28T16:09:01;4.70;;;3.50;;
65853;SDS011;52627;48.838;2.402;2023-02-28T16:11:32;4.90;;;3.80;;
65853;SDS011;52627;48.838;2.402;2023-02-28T16:14:00;4.90;;;3.70;;
65853;SDS011;52627;48.838;2.402;2023-02-28T16:16:28;6.90;;;3.60;;
65853;SDS011;52627;48.838;2.402;2023-02-28T16:18:56;4.90;;;3.60;;
65853;SDS011;52627;48.838;2.402;2023-02-28T16:21:24;6.00;;;3.70;;
65853;SDS011;52627;48.838;2.402;2023-02-28T16:23:52;5.80;;;4.10;;
65853;SDS011;52627;48.838;2.402;2023-02-28T16:26:24;7.10;;;4.40;;
65853;SDS011;52627;48.838;2.402;2023-02-28T16:28:54;6.00;;;3.90;;
65853;SDS011;52627;48.838;2.402;2023-02-28T16:31:21;6.50;;;4.40;;
65853;SDS011;52627;48.838;2.402;2023-02-28T16:33:49;6.00;;;3.90;;
65853;SDS011;52627;48.838;2.402;2023-02-28T16:36:23;7.80;;;4.40;;
65853;SDS011;52627;48.838;2.402;2023-02-28T16:38:55;5.70;;;3.60;;
65853;SDS011;52627;48.838;2.402;2023-02-28T16:41:26;7.50;;;4.40;;
65853;SDS011;52627;48.838;2.402;2023-02-28T16:43:56;7.30;;;4.60;;
65853;SDS011;52627;48.838;2.402;2023-02-28T16:46:30;5.70;;;4.10;;
65853;SDS011;52627;48.838;2.402;2023-02-28T16:49:02;6.40;;;4.40;;
65853;SDS011;52627;48.838;2.402;2023-02-28T16:51:30;6.50;;;4.30;;
65853;SDS011;52627;48.838;2.402;2023-02-28T16:54:01;5.80;;;4.10;;
65853;SDS011;52627;48.838;2.402;2023-02-28T16:56:29;6.80;;;4.40;;
65853;SDS011;52627;48.838;2.402;2023-02-28T16:59:00;8.80;;;4.10;;
65853;SDS011;52627;48.838;2.402;2023-02-28T17:01:29;4.80;;;3.50;;
65853;SDS011;52627;48.838;2.402;2023-02-28T17:03:57;6.00;;;4.70;;
65853;SDS011;52627;48.838;2.402;2023-02-28T17:06:27;8.30;;;4.60;;
65853;SDS011;52627;48.838;2.402;2023-02-28T17:08:57;5.90;;;4.30;;
65853;SDS011;52627;48.838;2.402;2023-02-28T17:11:25;9.80;;;4.40;;
65853;SDS011;52627;48.838;2.402;2023-02-28T17:13:54;6.80;;;4.60;;
65853;SDS011;52627;48.838;2.402;2023-02-28T17:16:32;6.00;;;4.30;;
65853;SDS011;52627;48.838;2.402;2023-02-28T17:19:03;6.00;;;4.60;;
65853;SDS011;52627;48.838;2.402;2023-02-28T17:21:32;5.40;;;4.10;;
65853;SDS011;52627;48.838;2.402;2023-02-28T17:24:00;7.80;;;4.60;;
65853;SDS011;52627;48.838;2.402;2023-02-28T17:26:28;5.60;;;4.00;;